createdAt,value
2022-09-07T00:00:43.369Z,25.80
2022-09-07T00:03:45.198Z,25.80
2022-09-07T00:06:47.025Z,25.80
2022-09-07T00:09:48.888Z,25.80
2022-09-07T00:12:51.136Z,25.80
2022-09-07T00:15:53.157Z,25.80
2022-09-07T00:18:57.036Z,25.80
2022-09-07T00:21:58.882Z,25.80
2022-09-07T00:25:00.829Z,25.80
2022-09-07T00:28:02.900Z,25.80
2022-09-07T00:31:09.320Z,25.80
2022-09-07T00:34:11.177Z,25.80
2022-09-07T00:37:13.014Z,25.70
2022-09-07T00:40:14.855Z,25.80
2022-09-07T00:43:30.014Z,25.70
2022-09-07T00:46:32.265Z,25.80
2022-09-07T00:49:35.222Z,25.70
2022-09-07T00:52:37.987Z,25.70
2022-09-07T00:55:42.746Z,25.70
2022-09-07T00:58:44.816Z,25.70
2022-09-07T01:01:46.921Z,25.80
2022-09-07T01:04:55.201Z,25.70
2022-09-07T01:07:58.252Z,25.70
2022-09-07T01:11:01.107Z,25.70
2022-09-07T01:14:07.674Z,25.70
2022-09-07T01:17:20.817Z,25.70
2022-09-07T01:20:34.318Z,25.70
2022-09-07T01:23:57.466Z,25.70
2022-09-07T01:27:21.097Z,25.70
2022-09-07T01:30:24.105Z,25.70
2022-09-07T01:33:57.016Z,25.70
2022-09-07T01:37:20.843Z,25.70
2022-09-07T01:40:39.831Z,25.70
2022-09-07T01:44:06.281Z,25.70
2022-09-07T01:47:21.531Z,25.70
2022-09-07T01:50:33.801Z,25.70
2022-09-07T01:53:49.689Z,25.70
2022-09-07T01:56:56.206Z,25.70
2022-09-07T02:00:04.373Z,25.70
2022-09-07T02:03:32.907Z,25.70
2022-09-07T02:06:34.731Z,25.60
2022-09-07T02:09:53.509Z,25.70
2022-09-07T02:13:06.786Z,25.70
2022-09-07T02:16:26.713Z,25.70
2022-09-07T02:19:35.393Z,25.70
2022-09-07T02:22:41.852Z,25.60
2022-09-07T02:25:53.579Z,25.70
2022-09-07T02:28:55.964Z,25.70
2022-09-07T02:31:57.941Z,25.70
2022-09-07T02:34:59.834Z,25.70
2022-09-07T02:38:05.394Z,25.70
2022-09-07T02:41:34.627Z,25.70
2022-09-07T02:44:39.605Z,25.60
2022-09-07T02:47:53.393Z,25.60
2022-09-07T02:51:24.285Z,25.60
2022-09-07T02:54:44.579Z,25.60
2022-09-07T02:58:16.280Z,25.60
2022-09-07T03:01:29.061Z,25.60
2022-09-07T03:04:38.143Z,25.60
2022-09-07T03:07:51.326Z,25.60
2022-09-07T03:10:54.160Z,25.60
2022-09-07T03:14:18.615Z,25.60
2022-09-07T03:17:20.462Z,25.60
2022-09-07T03:20:23.008Z,25.60
2022-09-07T03:23:24.954Z,25.60
2022-09-07T03:26:26.831Z,25.60
2022-09-07T03:29:28.715Z,25.60
2022-09-07T03:32:32.477Z,25.60
2022-09-07T03:35:34.290Z,25.60
2022-09-07T03:38:36.088Z,25.60
2022-09-07T03:41:38.327Z,25.60
2022-09-07T03:44:40.158Z,25.60
2022-09-07T03:47:42.075Z,25.60
2022-09-07T03:50:43.925Z,25.60
2022-09-07T03:53:47.595Z,25.60
2022-09-07T03:56:49.480Z,25.60
2022-09-07T03:59:51.329Z,25.60
2022-09-07T04:02:53.217Z,25.60
2022-09-07T04:05:55.158Z,25.50
2022-09-07T04:08:57.078Z,25.60
2022-09-07T04:11:58.901Z,25.60
2022-09-07T04:15:00.734Z,25.60
2022-09-07T04:18:02.776Z,25.60
2022-09-07T04:21:04.688Z,25.50
2022-09-07T04:24:06.800Z,25.50
2022-09-07T04:27:08.605Z,25.60
2022-09-07T04:30:11.498Z,25.50
2022-09-07T04:33:14.263Z,25.50
2022-09-07T04:36:17.500Z,25.60
2022-09-07T04:39:19.341Z,25.50
2022-09-07T04:42:21.779Z,25.60
2022-09-07T04:45:23.626Z,25.50
2022-09-07T04:48:25.481Z,25.50
2022-09-07T04:51:30.220Z,25.50
2022-09-07T04:54:32.151Z,25.50
2022-09-07T04:57:34.175Z,25.50
2022-09-07T05:00:37.690Z,25.50
2022-09-07T05:03:39.556Z,25.50
2022-09-07T05:06:41.454Z,25.50
2022-09-07T05:09:43.397Z,25.50
2022-09-07T05:12:45.209Z,25.50
2022-09-07T05:15:47.406Z,25.50
2022-09-07T05:18:51.056Z,25.50
2022-09-07T05:21:52.864Z,25.50
2022-09-07T05:24:54.691Z,25.40
2022-09-07T05:27:56.640Z,25.30
2022-09-07T05:31:18.079Z,25.30
2022-09-07T05:37:29.913Z,25.30
2022-09-07T05:40:36.104Z,25.40
2022-09-07T05:47:03.419Z,25.50
2022-09-07T05:50:09.128Z,25.70
2022-09-07T05:53:11.012Z,26.00
2022-09-07T05:56:13.512Z,26.30
2022-09-07T05:59:15.326Z,26.60
2022-09-07T06:02:17.202Z,26.70
2022-09-07T06:05:19.231Z,26.70
2022-09-07T06:08:21.015Z,26.70
2022-09-07T06:11:24.440Z,26.80
2022-09-07T06:14:26.217Z,26.80
2022-09-07T06:17:29.541Z,26.80
2022-09-07T06:20:31.350Z,26.80
2022-09-07T06:23:34.348Z,26.70
2022-09-07T06:26:36.148Z,26.50
2022-09-07T06:29:37.962Z,26.50
2022-09-07T06:32:42.899Z,26.40
2022-09-07T06:35:57.661Z,26.30
2022-09-07T06:39:01.449Z,26.20
2022-09-07T06:42:04.191Z,26.20
2022-09-07T06:45:07.079Z,26.10
2022-09-07T06:48:08.907Z,26.20
2022-09-07T06:51:19.522Z,26.10
2022-09-07T06:57:43.137Z,26.10
2022-09-07T07:00:45.248Z,26.20
2022-09-07T07:03:48.136Z,26.20
2022-09-07T07:06:49.957Z,26.20
2022-09-07T07:09:51.777Z,26.10
2022-09-07T07:12:57.978Z,26.10
2022-09-07T07:16:12.292Z,26.10
2022-09-07T07:19:14.208Z,26.10
2022-09-07T07:22:42.975Z,26.10
2022-09-07T07:25:38.303Z,26.10
2022-09-07T07:32:01.905Z,26.00
2022-09-07T07:35:03.883Z,26.00
2022-09-07T07:48:14.818Z,26.00
2022-09-07T07:51:16.636Z,26.00
2022-09-07T07:54:18.544Z,26.00
2022-09-07T07:57:20.364Z,26.00
2022-09-07T08:00:37.390Z,26.00
2022-09-07T08:03:46.802Z,26.00
2022-09-07T08:06:49.051Z,25.90
2022-09-07T08:09:50.972Z,26.00
2022-09-07T08:12:53.349Z,25.90
2022-09-07T08:15:59.287Z,25.90
2022-09-07T08:19:01.877Z,25.90
2022-09-07T08:22:03.916Z,25.90
2022-09-07T08:25:07.069Z,25.90
2022-09-07T08:28:08.759Z,25.90
2022-09-07T08:31:13.608Z,25.90
2022-09-07T08:34:15.387Z,25.90
2022-09-07T08:37:17.096Z,25.90
2022-09-07T08:40:19.603Z,25.90
2022-09-07T08:43:39.903Z,25.90
2022-09-07T08:47:03.107Z,25.90
2022-09-07T08:50:29.328Z,25.90
2022-09-07T08:53:31.644Z,26.00
2022-09-07T08:57:20.638Z,25.90
2022-09-07T09:00:08.023Z,25.90
2022-09-07T09:03:32.110Z,25.90
2022-09-07T09:06:43.067Z,25.90
2022-09-07T09:09:58.562Z,25.90
2022-09-07T09:13:45.294Z,25.90
2022-09-07T09:16:54.962Z,25.90
2022-09-07T09:19:59.461Z,25.90
2022-09-07T09:23:10.755Z,26.00
2022-09-07T09:26:24.019Z,25.90
2022-09-07T09:29:25.821Z,25.90
2022-09-07T09:32:42.002Z,26.00
2022-09-07T09:35:45.581Z,26.00
2022-09-07T09:38:47.297Z,26.00
2022-09-07T09:41:49.685Z,26.00
2022-09-07T09:44:51.638Z,26.00
2022-09-07T09:47:54.886Z,26.00
2022-09-07T09:54:37.125Z,25.90
2022-09-07T10:01:35.995Z,26.00
2022-09-07T10:04:38.193Z,26.00
2022-09-07T10:07:39.912Z,26.00
2022-09-07T10:10:55.459Z,26.00
2022-09-07T10:13:58.039Z,26.00
2022-09-07T10:17:02.140Z,26.00
2022-09-07T10:20:15.934Z,26.00
2022-09-07T10:23:23.473Z,26.00
2022-09-07T10:26:31.983Z,26.00
2022-09-07T10:29:36.098Z,26.00
2022-09-07T10:32:53.112Z,26.00
2022-09-07T10:36:35.895Z,26.00
2022-09-07T10:39:43.663Z,26.00
2022-09-07T10:43:21.554Z,26.00
2022-09-07T10:46:57.299Z,26.00
2022-09-07T10:53:41.211Z,26.00
2022-09-07T10:56:58.753Z,26.00
2022-09-07T11:00:16.125Z,26.00
2022-09-07T11:03:29.897Z,26.00
2022-09-07T11:06:37.569Z,26.00
2022-09-07T11:10:01.062Z,26.00
2022-09-07T11:13:05.889Z,26.00
2022-09-07T11:20:05.346Z,26.00
2022-09-07T11:23:40.953Z,26.00
2022-09-07T11:26:48.491Z,26.00
2022-09-07T11:30:13.081Z,26.00
2022-09-07T11:33:36.356Z,26.00
2022-09-07T11:36:50.015Z,26.00
2022-09-07T11:39:53.938Z,26.00
2022-09-07T11:43:17.847Z,26.00
2022-09-07T11:46:23.773Z,26.00
2022-09-07T11:49:30.455Z,26.00
2022-09-07T11:52:40.476Z,25.90
2022-09-07T11:55:46.465Z,26.00
2022-09-07T11:59:37.057Z,26.00
2022-09-07T12:02:58.958Z,25.90
2022-09-07T12:06:30.132Z,25.90
2022-09-07T12:09:50.438Z,25.90
2022-09-07T12:13:07.840Z,25.90
2022-09-07T12:16:09.653Z,25.90
2022-09-07T12:19:21.427Z,25.90
2022-09-07T12:22:23.276Z,26.00
2022-09-07T12:25:25.813Z,25.90
2022-09-07T12:28:36.839Z,26.00
2022-09-07T12:31:57.807Z,25.90
2022-09-07T12:35:01.000Z,25.90
2022-09-07T12:38:18.171Z,25.90
2022-09-07T12:41:25.829Z,25.90
2022-09-07T12:44:29.460Z,25.90
2022-09-07T12:47:31.281Z,25.90
2022-09-07T12:51:03.360Z,25.90
2022-09-07T12:54:27.602Z,25.90
2022-09-07T12:57:39.202Z,25.90
2022-09-07T13:00:59.498Z,25.90
2022-09-07T13:04:28.663Z,25.90
2022-09-07T13:07:41.049Z,25.90
2022-09-07T13:10:43.647Z,25.90
2022-09-07T13:14:14.341Z,25.90
2022-09-07T13:17:38.721Z,25.90
2022-09-07T13:20:41.637Z,25.90
2022-09-07T13:24:45.683Z,25.90
2022-09-07T13:27:56.754Z,25.90
2022-09-07T13:31:17.865Z,25.90
2022-09-07T13:34:34.788Z,25.90
2022-09-07T13:37:57.799Z,25.90
2022-09-07T13:41:22.444Z,25.90
2022-09-07T13:44:31.034Z,25.90
2022-09-07T13:48:01.748Z,25.90
2022-09-07T13:51:18.689Z,25.90
2022-09-07T13:54:38.886Z,25.90
2022-09-07T13:57:53.158Z,25.90
2022-09-07T14:01:01.022Z,25.90
2022-09-07T14:04:08.319Z,25.90
2022-09-07T14:07:20.599Z,25.90
2022-09-07T14:10:25.007Z,25.90
2022-09-07T14:13:26.785Z,25.90
2022-09-07T14:16:28.599Z,25.80
2022-09-07T14:19:39.306Z,25.90
2022-09-07T14:22:42.079Z,25.90
2022-09-07T14:29:05.509Z,25.90
2022-09-07T14:32:14.436Z,25.80
2022-09-07T14:35:18.923Z,25.80
2022-09-07T14:41:50.856Z,25.80
2022-09-07T14:45:16.991Z,25.90
2022-09-07T14:48:29.257Z,25.90
2022-09-07T14:51:36.411Z,25.80
2022-09-07T14:54:39.638Z,25.80
2022-09-07T14:57:41.385Z,25.80
2022-09-07T15:00:45.978Z,25.80
2022-09-07T15:03:56.562Z,25.80
2022-09-07T15:07:01.702Z,25.70
2022-09-07T15:10:30.308Z,25.80
2022-09-07T15:13:34.839Z,25.70
2022-09-07T15:16:40.033Z,25.80
2022-09-07T15:19:42.968Z,25.70
2022-09-07T15:22:44.958Z,25.70
2022-09-07T15:25:53.639Z,25.70
2022-09-07T15:29:11.798Z,25.70
2022-09-07T15:32:19.275Z,25.70
2022-09-07T15:35:21.102Z,25.70
2022-09-07T15:41:46.034Z,25.70
2022-09-07T15:44:47.795Z,25.70
2022-09-07T15:47:52.203Z,25.70
2022-09-07T15:51:03.685Z,25.70
2022-09-07T15:54:07.730Z,25.70
2022-09-07T16:00:35.279Z,25.80
2022-09-07T16:03:37.184Z,25.80
2022-09-07T16:06:38.931Z,25.80
2022-09-07T16:09:40.615Z,25.80
2022-09-07T16:16:05.860Z,25.80
2022-09-07T16:19:08.027Z,25.80
2022-09-07T16:22:09.954Z,25.80
2022-09-07T16:25:11.949Z,25.80
2022-09-07T16:28:14.535Z,25.70
2022-09-07T16:31:27.875Z,25.70
2022-09-07T16:34:30.019Z,25.70
2022-09-07T16:37:31.732Z,25.80
2022-09-07T16:40:33.541Z,25.70
2022-09-07T16:43:35.696Z,25.70
2022-09-07T16:46:38.467Z,25.70
2022-09-07T16:49:40.429Z,25.70
2022-09-07T16:52:42.120Z,25.70
2022-09-07T16:55:43.826Z,25.70
2022-09-07T16:58:51.351Z,25.70
2022-09-07T17:01:53.525Z,25.70
2022-09-07T17:04:55.357Z,25.70
2022-09-07T17:07:58.536Z,25.70
2022-09-07T17:11:08.421Z,25.70
2022-09-07T17:14:10.242Z,25.70
2022-09-07T17:17:11.974Z,25.70
2022-09-07T17:20:14.030Z,25.70
2022-09-07T17:23:16.798Z,25.80
2022-09-07T17:26:19.571Z,25.70
2022-09-07T17:29:21.478Z,25.70
2022-09-07T17:32:26.189Z,25.70
2022-09-07T17:35:30.761Z,25.70
2022-09-07T17:41:58.475Z,25.70
2022-09-07T17:45:00.226Z,25.80
2022-09-07T17:48:02.148Z,25.70
2022-09-07T17:51:07.212Z,25.80
2022-09-07T17:54:13.020Z,25.80
2022-09-07T17:57:14.792Z,25.80
2022-09-07T18:00:16.541Z,25.80
2022-09-07T18:03:18.664Z,25.80
2022-09-07T18:06:21.073Z,25.80
2022-09-07T18:09:22.865Z,25.70
2022-09-07T18:12:24.611Z,25.80
2022-09-07T18:15:26.380Z,25.80
2022-09-07T18:18:28.656Z,25.80
2022-09-07T18:21:33.388Z,25.80
2022-09-07T18:24:36.878Z,25.80
2022-09-07T18:27:40.405Z,25.80
2022-09-07T18:30:44.269Z,25.80
2022-09-07T18:33:48.631Z,25.80
2022-09-07T18:36:50.927Z,25.80
2022-09-07T18:39:52.683Z,25.80
2022-09-07T18:42:55.158Z,25.80
2022-09-07T18:46:05.666Z,25.80
2022-09-07T18:49:07.471Z,25.80
2022-09-07T18:55:32.226Z,25.80
2022-09-07T18:58:34.864Z,25.80
2022-09-07T19:01:36.648Z,25.80
2022-09-07T19:08:03.188Z,25.70
2022-09-07T19:11:14.478Z,25.80
2022-09-07T19:14:17.408Z,25.80
2022-09-07T19:17:19.493Z,25.80
2022-09-07T19:20:21.340Z,25.70
2022-09-07T19:23:23.223Z,25.70
2022-09-07T19:26:26.901Z,25.80
2022-09-07T19:29:29.045Z,25.80
2022-09-07T19:32:30.750Z,25.80
2022-09-07T19:35:35.638Z,25.80
2022-09-07T19:38:37.562Z,25.80
2022-09-07T19:41:44.935Z,25.80
2022-09-07T19:44:46.803Z,25.80
2022-09-07T19:47:50.530Z,25.80
2022-09-07T19:50:52.357Z,25.80
2022-09-07T19:53:54.084Z,25.80
2022-09-07T19:56:55.829Z,25.70
2022-09-07T19:59:57.921Z,25.70
2022-09-07T20:02:59.660Z,25.70
2022-09-07T20:06:08.758Z,25.70
2022-09-07T20:09:10.465Z,25.70
2022-09-07T20:12:12.280Z,25.80
2022-09-07T20:15:14.054Z,25.80
2022-09-07T20:18:15.835Z,25.80
2022-09-07T20:21:20.253Z,25.80
2022-09-07T20:24:22.751Z,25.70
2022-09-07T20:27:26.372Z,25.80
2022-09-07T20:30:31.338Z,25.70
2022-09-07T20:33:35.731Z,25.80
2022-09-07T20:36:37.549Z,25.70
2022-09-07T20:39:39.784Z,25.80
2022-09-07T20:42:41.647Z,25.70
2022-09-07T20:45:43.457Z,25.80
2022-09-07T20:48:45.188Z,25.80
2022-09-07T20:51:46.894Z,25.80
2022-09-07T20:54:48.651Z,25.70
2022-09-07T20:57:52.278Z,25.80
2022-09-07T21:00:54.120Z,25.80
2022-09-07T21:03:57.917Z,25.80
2022-09-07T21:06:59.615Z,25.80
2022-09-07T21:10:04.732Z,25.80
2022-09-07T21:13:08.923Z,25.80
2022-09-07T21:16:15.806Z,25.70
2022-09-07T21:19:17.777Z,25.70
2022-09-07T21:22:19.624Z,25.70
2022-09-07T21:25:21.412Z,25.70
2022-09-07T21:28:23.719Z,25.70
2022-09-07T21:31:26.545Z,25.70
2022-09-07T21:34:28.327Z,25.70
2022-09-07T21:37:30.100Z,25.70
2022-09-07T21:40:31.802Z,25.70
2022-09-07T21:43:33.978Z,25.70
2022-09-07T21:46:36.363Z,25.60
2022-09-07T21:49:38.104Z,25.60
2022-09-07T21:52:39.944Z,25.70
2022-09-07T21:55:41.723Z,25.60
2022-09-07T21:58:43.695Z,25.70
2022-09-07T22:01:45.444Z,25.60
2022-09-07T22:04:47.208Z,25.60
2022-09-07T22:07:48.986Z,25.60
2022-09-07T22:10:50.666Z,25.60
2022-09-07T22:14:00.173Z,25.60
2022-09-07T22:17:02.372Z,25.60
2022-09-07T22:20:04.280Z,25.60
2022-09-07T22:23:06.065Z,25.60
2022-09-07T22:26:08.216Z,25.60
2022-09-07T22:29:11.606Z,25.60
2022-09-07T22:32:13.308Z,25.60
2022-09-07T22:35:15.867Z,25.60
2022-09-07T22:38:17.635Z,25.60
2022-09-07T22:41:24.882Z,25.60
2022-09-07T22:44:27.491Z,25.60
2022-09-07T22:47:29.178Z,25.60
2022-09-07T22:50:32.240Z,25.60
2022-09-07T22:53:36.577Z,25.50
2022-09-07T22:56:39.001Z,25.60
2022-09-07T22:59:40.731Z,25.60
2022-09-07T23:02:42.480Z,25.50
2022-09-07T23:05:44.391Z,25.60
2022-09-07T23:08:46.095Z,25.50
2022-09-07T23:11:48.714Z,25.60
2022-09-07T23:14:50.454Z,25.60
2022-09-07T23:17:52.316Z,25.50
2022-09-07T23:21:00.922Z,25.60
2022-09-07T23:24:02.968Z,25.60
2022-09-07T23:27:04.754Z,25.60
2022-09-07T23:30:07.645Z,25.60
2022-09-07T23:33:09.376Z,25.60
2022-09-07T23:36:11.153Z,25.60
2022-09-07T23:39:13.019Z,25.60
2022-09-07T23:42:14.831Z,25.60
2022-09-07T23:45:16.659Z,25.60
2022-09-07T23:48:18.671Z,25.50
2022-09-07T23:51:24.152Z,25.50
2022-09-07T23:54:26.822Z,25.50
2022-09-07T23:57:28.644Z,25.60
